Flight Track Log - Related Links

Times and Time Zones

All times are in EDT time to prevent confusion due to time zone crossing. See the PDT4314 flight status page for this flight to view local times or setup timezone preferences in your user account.

Time Position Orientation Groundspeed Altitude Reporting Facility
EDT Latitude Longitude Course Direction KTS MPH feet Rate Location/Type
Wed 06:51:00 PM 41.9714 -75.9022 180° South  Level Estimated
Wed 06:52:00 PM 41.9107 -75.9108 186° South  Level FlightAware Approximate
Wed 06:53:00 PM 41.8501 -75.9193 186° South  Level FlightAware Approximate
Wed 06:54:00 PM 41.7894 -75.9278 186° South  Level FlightAware Approximate
Wed 06:55:00 PM 41.7306 -75.9061 154° Southeast  Level Estimated
Wed 06:56:00 PM 41.6718 -75.8845 160° South  Level Estimated
Wed 06:57:00 PM 41.6129 -75.8628 159° South  Level Estimated
Wed 06:58:00 PM 41.5566 -75.8315 157° South  Level FlightAware Approximate
Wed 06:59:00 PM 41.4977 -75.8103 153° Southeast  Level Estimated
Wed 07:00:00 PM 41.4388 -75.7891 161° South  Level Estimated
Wed 07:01:00 PM 41.3834 -75.7550 155° Southeast  Level FlightAware Approximate
Wed 07:02:00 PM 41.3280 -75.7210 155° Southeast  Level FlightAware Approximate
Wed 07:03:00 PM 41.2689 -75.7010 162° South  Level Estimated
Wed 07:04:00 PM 41.2118 -75.6724 159° South  Level FlightAware Approximate
Wed 07:05:00 PM 41.1547 -75.6438 159° South  Level FlightAware Approximate
Wed 07:06:00 PM 41.0976 -75.6153 159° South  Level FlightAware Approximate
Wed 07:07:00 PM 41.0405 -75.5868 159° South  Level FlightAware Approximate
Wed 07:08:00 PM 40.9810 -75.5689 159° South  Level Estimated
Wed 07:09:00 PM 40.9215 -75.5510 163° South  Level Estimated
Wed 07:10:00 PM 40.8644 -75.5228 160° South  Level FlightAware Approximate
Wed 07:11:00 PM 40.8072 -75.4946 160° South  Level FlightAware Approximate
Wed 07:12:00 PM 40.7501 -75.4664 160° South  Level FlightAware Approximate
Wed 07:13:00 PM 40.6902 -75.4509 190° South  Level Estimated
Wed 07:14:00 PM 40.6304 -75.4663 191° South  Level FlightAware Approximate
Wed 07:15:00 PM 40.5705 -75.4818 191° South  Level FlightAware Approximate
Wed 07:16:00 PM 40.5115 -75.4613 187° South  Level Estimated
Wed 07:16:16 PM 40.5333 -75.5833 143° Southeast 245 282 4,900  Level Philadelphia TRACON
Wed 07:17:00 PM 40.4545 -75.4896 201° Southwest  Level FlightAware Approximate
Wed 07:17:28 PM 40.4667 -75.5833 180° South 233 268 4,900  Level Philadelphia TRACON
Wed 07:18:00 PM 40.3965 -75.4647 190° South  Level Estimated
Wed 07:18:28 PM 40.4000 -75.5833 180° South 228 262 4,900  Level Philadelphia TRACON
Wed 07:19:00 PM 40.3408 -75.4972 204° Southwest  Level FlightAware Approximate
Wed 07:19:28 PM 40.3500 -75.5333 143° Southeast 227 261 5,000  Level Philadelphia TRACON
Wed 07:20:00 PM 40.2850 -75.5296 204° Southwest  Level FlightAware Approximate
Wed 07:20:28 PM 40.3000 -75.4833 143° Southeast 227 261 4,800  Level Philadelphia TRACON
Wed 07:21:00 PM 40.2313 -75.4918 143° Southeast  Level Estimated
Wed 07:21:28 PM 40.2500 -75.4333 143° Southeast 236 272 4,400  Level Philadelphia TRACON
Wed 07:22:29 PM 40.1833 -75.3833 150° Southeast 244 281 4,000 -250 Descending Philadelphia TRACON
Wed 07:23:28 PM 40.1333 -75.3500 153° Southeast 229 264 3,900 -100 Descending Philadelphia TRACON
Wed 07:24:29 PM 40.0833 -75.3333 166° South 196 226 3,800 -496 Descending Philadelphia TRACON
Wed 07:25:29 PM 40.0333 -75.3167 166° South 172 198 2,900 -950 Descending Philadelphia TRACON
Wed 07:26:29 PM 39.9833 -75.2833 153° Southeast 180 207 1,900 -950 Descending Philadelphia TRACON
Wed 07:27:29 PM 39.9333 -75.2667 166° South 158 182 1,000 -750 Descending Philadelphia TRACON
Wed 07:28:29 PM 39.9000 -75.2500 159° South 120 138 400 -600 Descending Philadelphia TRACON

Login

Don't have an account? Register now (free) for customized features, flight alerts, and more!